sensor_id;sensor_type;location;lat;lon;timestamp;pressure;altitude;pressure_sealevel;temperature;humidity
76074;BME280;64776;42.636;24.358;2023-04-08T00:01:53;90135.00;;;2.40;77.32
76074;BME280;64776;42.636;24.358;2023-04-08T00:04:54;90138.03;;;2.39;77.38
76074;BME280;64776;42.636;24.358;2023-04-08T00:07:54;90133.81;;;2.29;77.41
76074;BME280;64776;42.636;24.358;2023-04-08T00:10:55;90135.81;;;2.25;77.72
76074;BME280;64776;42.636;24.358;2023-04-08T00:13:56;90129.19;;;2.20;77.97
76074;BME280;64776;42.636;24.358;2023-04-08T00:16:58;90130.53;;;2.25;77.96
76074;BME280;64776;42.636;24.358;2023-04-08T00:19:59;90129.81;;;2.24;77.71
76074;BME280;64776;42.636;24.358;2023-04-08T00:23:00;90132.03;;;2.26;77.69
76074;BME280;64776;42.636;24.358;2023-04-08T00:26:01;90138.03;;;2.26;77.63
76074;BME280;64776;42.636;24.358;2023-04-08T00:29:01;90134.13;;;2.31;77.68
76074;BME280;64776;42.636;24.358;2023-04-08T00:32:04;90144.66;;;2.31;77.75
76074;BME280;64776;42.636;24.358;2023-04-08T00:35:05;90135.09;;;2.24;77.94
76074;BME280;64776;42.636;24.358;2023-04-08T00:38:06;90127.91;;;2.25;77.89
76074;BME280;64776;42.636;24.358;2023-04-08T00:41:06;90126.00;;;2.25;78.11
76074;BME280;64776;42.636;24.358;2023-04-08T00:44:07;90134.44;;;2.33;78.03
76074;BME280;64776;42.636;24.358;2023-04-08T00:47:13;90130.22;;;2.23;78.12
76074;BME280;64776;42.636;24.358;2023-04-08T00:50:14;90129.72;;;2.28;78.19
76074;BME280;64776;42.636;24.358;2023-04-08T00:53:17;90133.81;;;2.29;77.85
76074;BME280;64776;42.636;24.358;2023-04-08T00:56:18;90138.41;;;2.12;78.69
76074;BME280;64776;42.636;24.358;2023-04-08T00:59:19;90139.47;;;2.15;79.14
76074;BME280;64776;42.636;24.358;2023-04-08T01:02:28;90140.09;;;2.06;79.27
76074;BME280;64776;42.636;24.358;2023-04-08T01:05:38;90139.06;;;2.04;79.51
76074;BME280;64776;42.636;24.358;2023-04-08T01:08:41;90145.75;;;1.92;79.66
76074;BME280;64776;42.636;24.358;2023-04-08T01:11:43;90149.34;;;1.98;80.18
76074;BME280;64776;42.636;24.358;2023-04-08T01:14:46;90150.72;;;2.03;80.02
76074;BME280;64776;42.636;24.358;2023-04-08T01:17:53;90151.03;;;2.05;79.47
76074;BME280;64776;42.636;24.358;2023-04-08T01:20:54;90150.94;;;1.96;79.25
76074;BME280;64776;42.636;24.358;2023-04-08T01:24:03;90141.97;;;1.93;79.69
76074;BME280;64776;42.636;24.358;2023-04-08T01:27:07;90150.63;;;1.94;79.91
76074;BME280;64776;42.636;24.358;2023-04-08T01:30:10;90146.81;;;1.95;79.95
76074;BME280;64776;42.636;24.358;2023-04-08T01:33:13;90150.09;;;1.99;79.40
76074;BME280;64776;42.636;24.358;2023-04-08T01:36:16;90149.03;;;1.96;79.30
76074;BME280;64776;42.636;24.358;2023-04-08T01:39:18;90146.63;;;2.02;79.34
76074;BME280;64776;42.636;24.358;2023-04-08T01:42:21;90152.53;;;2.06;78.98
76074;BME280;64776;42.636;24.358;2023-04-08T01:45:24;90152.00;;;2.11;79.16
76074;BME280;64776;42.636;24.358;2023-04-08T01:48:26;90146.31;;;2.12;79.21
76074;BME280;64776;42.636;24.358;2023-04-08T01:51:28;90144.22;;;2.07;79.45
76074;BME280;64776;42.636;24.358;2023-04-08T01:54:30;90149.47;;;2.07;79.54
76074;BME280;64776;42.636;24.358;2023-04-08T01:57:34;90151.56;;;2.12;79.43
76074;BME280;64776;42.636;24.358;2023-04-08T02:00:38;90156.69;;;1.91;80.23
76074;BME280;64776;42.636;24.358;2023-04-08T02:03:42;90156.50;;;1.98;80.15
76074;BME280;64776;42.636;24.358;2023-04-08T02:06:43;90161.06;;;2.10;79.22
76074;BME280;64776;42.636;24.358;2023-04-08T02:09:44;90157.34;;;1.95;79.98
76074;BME280;64776;42.636;24.358;2023-04-08T02:12:47;90160.47;;;1.90;80.63
76074;BME280;64776;42.636;24.358;2023-04-08T02:15:51;90166.16;;;1.88;80.33
76074;BME280;64776;42.636;24.358;2023-04-08T02:18:58;90156.81;;;1.87;80.35
76074;BME280;64776;42.636;24.358;2023-04-08T02:22:04;90165.09;;;1.86;80.62
76074;BME280;64776;42.636;24.358;2023-04-08T02:25:10;90162.50;;;1.70;80.80
76074;BME280;64776;42.636;24.358;2023-04-08T02:28:14;90166.91;;;1.60;82.27
76074;BME280;64776;42.636;24.358;2023-04-08T02:31:18;90165.16;;;1.70;81.83
76074;BME280;64776;42.636;24.358;2023-04-08T02:34:21;90171.44;;;2.01;81.04
76074;BME280;64776;42.636;24.358;2023-04-08T02:37:22;90177.34;;;2.05;81.90
76074;BME280;64776;42.636;24.358;2023-04-08T02:40:25;90174.94;;;2.10;81.52
76074;BME280;64776;42.636;24.358;2023-04-08T02:43:27;90180.53;;;2.12;80.84
76074;BME280;64776;42.636;24.358;2023-04-08T02:46:28;90180.00;;;2.17;80.36
76074;BME280;64776;42.636;24.358;2023-04-08T02:49:28;90179.19;;;2.20;80.06
76074;BME280;64776;42.636;24.358;2023-04-08T02:52:29;90181.09;;;2.20;80.11
76074;BME280;64776;42.636;24.358;2023-04-08T02:55:30;90182.31;;;2.15;79.75
76074;BME280;64776;42.636;24.358;2023-04-08T02:58:32;90186.44;;;2.16;79.76
76074;BME280;64776;42.636;24.358;2023-04-08T03:01:33;90189.16;;;2.13;79.85
76074;BME280;64776;42.636;24.358;2023-04-08T03:04:34;90190.09;;;2.06;80.49
76074;BME280;64776;42.636;24.358;2023-04-08T03:07:35;90184.13;;;2.18;79.68
76074;BME280;64776;42.636;24.358;2023-04-08T03:10:36;90188.66;;;2.18;79.44
76074;BME280;64776;42.636;24.358;2023-04-08T03:13:38;90188.97;;;2.20;79.43
76074;BME280;64776;42.636;24.358;2023-04-08T03:16:39;90187.31;;;2.26;79.23
76074;BME280;64776;42.636;24.358;2023-04-08T03:19:40;90181.19;;;2.16;79.28
76074;BME280;64776;42.636;24.358;2023-04-08T03:22:41;90184.53;;;2.17;79.41
76074;BME280;64776;42.636;24.358;2023-04-08T03:25:41;90181.22;;;2.00;80.05
76074;BME280;64776;42.636;24.358;2023-04-08T03:28:44;90179.25;;;2.04;80.08
76074;BME280;64776;42.636;24.358;2023-04-08T03:31:44;90182.31;;;2.15;79.82
76074;BME280;64776;42.636;24.358;2023-04-08T03:34:45;90186.78;;;2.18;79.41
76074;BME280;64776;42.636;24.358;2023-04-08T03:37:46;90188.53;;;2.21;79.39
76074;BME280;64776;42.636;24.358;2023-04-08T03:40:47;90193.19;;;2.30;78.75
76074;BME280;64776;42.636;24.358;2023-04-08T03:43:49;90191.94;;;2.22;78.95
76074;BME280;64776;42.636;24.358;2023-04-08T03:46:50;90185.81;;;2.25;78.92
76074;BME280;64776;42.636;24.358;2023-04-08T03:49:51;90198.94;;;2.12;79.68
76074;BME280;64776;42.636;24.358;2023-04-08T03:52:52;90193.03;;;1.96;80.19
76074;BME280;64776;42.636;24.358;2023-04-08T03:55:53;90196.47;;;1.93;80.47
76074;BME280;64776;42.636;24.358;2023-04-08T03:58:58;90192.69;;;1.94;80.68
76074;BME280;64776;42.636;24.358;2023-04-08T04:01:59;90182.28;;;2.03;80.08
76074;BME280;64776;42.636;24.358;2023-04-08T04:04:59;90189.25;;;2.09;79.96
76074;BME280;64776;42.636;24.358;2023-04-08T04:08:00;90183.78;;;2.04;80.21
76074;BME280;64776;42.636;24.358;2023-04-08T04:11:01;90184.06;;;1.93;80.70
76074;BME280;64776;42.636;24.358;2023-04-08T04:14:03;90184.47;;;1.92;80.91
76074;BME280;64776;42.636;24.358;2023-04-08T04:17:04;90189.53;;;1.99;80.59
76074;BME280;64776;42.636;24.358;2023-04-08T04:20:06;90188.72;;;2.02;80.58
76074;BME280;64776;42.636;24.358;2023-04-08T04:23:07;90189.38;;;2.06;80.48
76074;BME280;64776;42.636;24.358;2023-04-08T04:26:08;90188.63;;;2.05;80.16
76074;BME280;64776;42.636;24.358;2023-04-08T04:29:13;90199.56;;;2.04;80.64
76074;BME280;64776;42.636;24.358;2023-04-08T04:32:15;90197.25;;;2.06;80.66
76074;BME280;64776;42.636;24.358;2023-04-08T04:35:16;90189.69;;;2.08;80.52
76074;BME280;64776;42.636;24.358;2023-04-08T04:38:16;90190.31;;;2.12;80.71
76074;BME280;64776;42.636;24.358;2023-04-08T04:41:17;90187.06;;;2.08;81.06
76074;BME280;64776;42.636;24.358;2023-04-08T04:44:19;90185.66;;;2.03;81.09
76074;BME280;64776;42.636;24.358;2023-04-08T04:47:20;90194.81;;;1.99;81.27
76074;BME280;64776;42.636;24.358;2023-04-08T04:50:53;90188.91;;;1.95;81.28
76074;BME280;64776;42.636;24.358;2023-04-08T04:53:54;90187.25;;;2.01;81.58
76074;BME280;64776;42.636;24.358;2023-04-08T04:56:55;90197.75;;;2.01;81.83
76074;BME280;64776;42.636;24.358;2023-04-08T04:59:57;90201.19;;;2.14;81.28
76074;BME280;64776;42.636;24.358;2023-04-08T05:02:58;90201.06;;;2.17;81.17
76074;BME280;64776;42.636;24.358;2023-04-08T05:05:59;90205.50;;;2.20;81.18
76074;BME280;64776;42.636;24.358;2023-04-08T05:08:59;90210.78;;;2.20;81.68
76074;BME280;64776;42.636;24.358;2023-04-08T05:12:00;90205.19;;;2.31;81.17
76074;BME280;64776;42.636;24.358;2023-04-08T05:15:03;90212.78;;;2.29;81.32
76074;BME280;64776;42.636;24.358;2023-04-08T05:18:03;90212.59;;;2.36;80.82
76074;BME280;64776;42.636;24.358;2023-04-08T05:21:04;90207.63;;;2.38;80.74
76074;BME280;64776;42.636;24.358;2023-04-08T05:24:05;90212.78;;;2.41;80.87
76074;BME280;64776;42.636;24.358;2023-04-08T05:27:06;90219.44;;;2.46;80.69
76074;BME280;64776;42.636;24.358;2023-04-08T05:30:09;90216.94;;;2.55;80.05
76074;BME280;64776;42.636;24.358;2023-04-08T05:33:10;90221.34;;;2.58;80.26
76074;BME280;64776;42.636;24.358;2023-04-08T05:36:11;90220.75;;;2.67;80.45
76074;BME280;64776;42.636;24.358;2023-04-08T05:39:12;90223.91;;;2.74;80.58
76074;BME280;64776;42.636;24.358;2023-04-08T05:42:13;90223.38;;;2.79;80.43
76074;BME280;64776;42.636;24.358;2023-04-08T05:45:15;90225.28;;;2.91;79.67
76074;BME280;64776;42.636;24.358;2023-04-08T05:48:16;90227.91;;;3.04;79.86
76074;BME280;64776;42.636;24.358;2023-04-08T05:51:17;90225.91;;;3.20;78.78
76074;BME280;64776;42.636;24.358;2023-04-08T05:54:18;90225.69;;;3.27;78.56
76074;BME280;64776;42.636;24.358;2023-04-08T05:57:19;90229.91;;;3.38;78.27
76074;BME280;64776;42.636;24.358;2023-04-08T06:00:21;90224.38;;;3.45;77.71
76074;BME280;64776;42.636;24.358;2023-04-08T06:03:22;90220.16;;;3.60;77.38
76074;BME280;64776;42.636;24.358;2023-04-08T06:06:23;90227.91;;;3.76;77.30
76074;BME280;64776;42.636;24.358;2023-04-08T06:09:24;90219.13;;;3.91;76.28
76074;BME280;64776;42.636;24.358;2023-04-08T06:12:25;90218.13;;;3.98;75.78
76074;BME280;64776;42.636;24.358;2023-04-08T06:15:27;90217.88;;;4.05;76.03
76074;BME280;64776;42.636;24.358;2023-04-08T06:18:28;90221.84;;;4.22;75.63
76074;BME280;64776;42.636;24.358;2023-04-08T06:21:29;90216.84;;;4.24;74.55
76074;BME280;64776;42.636;24.358;2023-04-08T06:24:30;90217.09;;;4.39;73.94
76074;BME280;64776;42.636;24.358;2023-04-08T06:27:30;90219.25;;;4.53;73.95
76074;BME280;64776;42.636;24.358;2023-04-08T06:30:33;90219.59;;;4.64;73.02
76074;BME280;64776;42.636;24.358;2023-04-08T06:33:33;90214.53;;;4.78;73.02
76074;BME280;64776;42.636;24.358;2023-04-08T06:36:34;90209.00;;;4.85;72.51
76074;BME280;64776;42.636;24.358;2023-04-08T06:39:35;90212.28;;;4.99;72.13
76074;BME280;64776;42.636;24.358;2023-04-08T06:42:36;90214.53;;;5.18;72.38
76074;BME280;64776;42.636;24.358;2023-04-08T06:45:38;90217.69;;;5.35;70.47
76074;BME280;64776;42.636;24.358;2023-04-08T06:48:41;90212.69;;;5.37;69.83
76074;BME280;64776;42.636;24.358;2023-04-08T06:51:50;90210.91;;;5.34;70.56
76074;BME280;64776;42.636;24.358;2023-04-08T06:54:50;90206.25;;;5.38;69.96
76074;BME280;64776;42.636;24.358;2023-04-08T06:57:51;90199.66;;;5.51;69.83
76074;BME280;64776;42.636;24.358;2023-04-08T07:00:54;90203.03;;;5.61;70.41
76074;BME280;64776;42.636;24.358;2023-04-08T07:03:55;90210.28;;;5.78;69.35
76074;BME280;64776;42.636;24.358;2023-04-08T07:06:56;90204.00;;;5.94;68.40
76074;BME280;64776;42.636;24.358;2023-04-08T07:09:56;90209.59;;;6.05;68.95
76074;BME280;64776;42.636;24.358;2023-04-08T07:12:57;90209.28;;;6.12;68.06
76074;BME280;64776;42.636;24.358;2023-04-08T07:15:59;90212.09;;;6.27;66.61
76074;BME280;64776;42.636;24.358;2023-04-08T07:19:00;90205.44;;;6.49;66.75
76074;BME280;64776;42.636;24.358;2023-04-08T07:22:01;90210.88;;;6.64;65.84
76074;BME280;64776;42.636;24.358;2023-04-08T07:25:02;90209.53;;;6.78;64.38
76074;BME280;64776;42.636;24.358;2023-04-08T07:28:03;90201.00;;;7.15;65.63
76074;BME280;64776;42.636;24.358;2023-04-08T07:31:12;90203.75;;;7.30;63.52
76074;BME280;64776;42.636;24.358;2023-04-08T07:34:13;90207.53;;;7.38;64.07
76074;BME280;64776;42.636;24.358;2023-04-08T07:37:14;90208.19;;;7.24;64.19
76074;BME280;64776;42.636;24.358;2023-04-08T07:40:15;90209.66;;;6.83;66.04
76074;BME280;64776;42.636;24.358;2023-04-08T07:43:15;90206.72;;;6.90;65.96
76074;BME280;64776;42.636;24.358;2023-04-08T07:46:18;90208.75;;;6.95;65.46
76074;BME280;64776;42.636;24.358;2023-04-08T07:49:20;90208.56;;;7.08;67.22
76074;BME280;64776;42.636;24.358;2023-04-08T07:52:20;90207.22;;;7.45;65.00
76074;BME280;64776;42.636;24.358;2023-04-08T07:55:21;90209.63;;;7.34;64.32
76074;BME280;64776;42.636;24.358;2023-04-08T07:58:22;90219.94;;;7.41;65.16
76074;BME280;64776;42.636;24.358;2023-04-08T08:01:24;90215.88;;;7.55;64.39
76074;BME280;64776;42.636;24.358;2023-04-08T08:04:25;90220.94;;;7.76;65.01
76074;BME280;64776;42.636;24.358;2023-04-08T08:07:26;90214.94;;;7.90;65.47
76074;BME280;64776;42.636;24.358;2023-04-08T08:10:27;90225.13;;;7.92;65.83
76074;BME280;64776;42.636;24.358;2023-04-08T08:13:27;90222.91;;;8.14;64.67
76074;BME280;64776;42.636;24.358;2023-04-08T08:16:30;90224.66;;;8.17;64.20
76074;BME280;64776;42.636;24.358;2023-04-08T08:19:31;90238.28;;;8.10;65.36
76074;BME280;64776;42.636;24.358;2023-04-08T08:22:32;90228.22;;;8.14;63.62
76074;BME280;64776;42.636;24.358;2023-04-08T08:25:33;90235.66;;;8.24;65.06
76074;BME280;64776;42.636;24.358;2023-04-08T08:28:34;90238.50;;;8.21;65.26
76074;BME280;64776;42.636;24.358;2023-04-08T08:31:39;90243.25;;;8.17;66.22
76074;BME280;64776;42.636;24.358;2023-04-08T08:34:40;90246.00;;;8.22;64.47
76074;BME280;64776;42.636;24.358;2023-04-08T08:37:40;90249.69;;;8.34;63.69
76074;BME280;64776;42.636;24.358;2023-04-08T08:40:42;90242.59;;;8.31;64.07
76074;BME280;64776;42.636;24.358;2023-04-08T08:43:43;90243.94;;;8.27;63.19
76074;BME280;64776;42.636;24.358;2023-04-08T08:46:46;90248.88;;;7.95;62.44
76074;BME280;64776;42.636;24.358;2023-04-08T08:49:47;90241.06;;;8.15;64.70
76074;BME280;64776;42.636;24.358;2023-04-08T08:52:48;90239.66;;;8.29;63.61
76074;BME280;64776;42.636;24.358;2023-04-08T08:55:49;90243.06;;;8.30;63.10
76074;BME280;64776;42.636;24.358;2023-04-08T08:58:50;90245.22;;;8.55;62.46
76074;BME280;64776;42.636;24.358;2023-04-08T09:01:52;90248.34;;;8.68;62.57
76074;BME280;64776;42.636;24.358;2023-04-08T09:04:57;90245.63;;;8.77;62.07
76074;BME280;64776;42.636;24.358;2023-04-08T09:07:59;90246.25;;;8.72;61.55
76074;BME280;64776;42.636;24.358;2023-04-08T09:11:13;90249.00;;;8.63;62.27
76074;BME280;64776;42.636;24.358;2023-04-08T09:14:21;90250.94;;;8.62;63.54
76074;BME280;64776;42.636;24.358;2023-04-08T09:17:33;90249.66;;;8.87;62.61
76074;BME280;64776;42.636;24.358;2023-04-08T09:20:34;90255.75;;;9.02;60.91
76074;BME280;64776;42.636;24.358;2023-04-08T09:23:40;90260.28;;;8.72;61.12
76074;BME280;64776;42.636;24.358;2023-04-08T09:26:45;90265.25;;;8.65;60.82
76074;BME280;64776;42.636;24.358;2023-04-08T09:29:45;90258.31;;;8.44;61.19
76074;BME280;64776;42.636;24.358;2023-04-08T09:32:48;90260.25;;;8.58;60.88
76074;BME280;64776;42.636;24.358;2023-04-08T09:35:50;90256.47;;;8.73;60.68
76074;BME280;64776;42.636;24.358;2023-04-08T09:38:51;90258.81;;;8.57;61.90
76074;BME280;64776;42.636;24.358;2023-04-08T09:41:59;90259.56;;;8.72;61.26
76074;BME280;64776;42.636;24.358;2023-04-08T09:45:06;90253.13;;;8.64;62.24
76074;BME280;64776;42.636;24.358;2023-04-08T09:48:11;90259.28;;;8.70;61.74
76074;BME280;64776;42.636;24.358;2023-04-08T09:51:15;90256.28;;;9.06;59.27
76074;BME280;64776;42.636;24.358;2023-04-08T09:54:19;90264.19;;;9.15;59.95
76074;BME280;64776;42.636;24.358;2023-04-08T09:57:26;90255.16;;;8.69;61.70
76074;BME280;64776;42.636;24.358;2023-04-08T10:00:31;90254.00;;;8.46;62.82
76074;BME280;64776;42.636;24.358;2023-04-08T10:03:36;90261.88;;;8.41;63.41
76074;BME280;64776;42.636;24.358;2023-04-08T10:06:40;90252.81;;;8.47;63.88
76074;BME280;64776;42.636;24.358;2023-04-08T10:09:41;90251.25;;;8.55;63.25
76074;BME280;64776;42.636;24.358;2023-04-08T10:12:47;90251.72;;;8.54;63.07
76074;BME280;64776;42.636;24.358;2023-04-08T10:15:49;90254.94;;;8.58;60.24
76074;BME280;64776;42.636;24.358;2023-04-08T10:18:53;90250.00;;;8.51;61.35
76074;BME280;64776;42.636;24.358;2023-04-08T10:21:54;90251.09;;;8.59;62.01
76074;BME280;64776;42.636;24.358;2023-04-08T10:25:27;90246.09;;;8.75;58.62
76074;BME280;64776;42.636;24.358;2023-04-08T10:28:46;90244.91;;;8.91;59.07
76074;BME280;64776;42.636;24.358;2023-04-08T10:31:48;90245.31;;;8.60;61.30
76074;BME280;64776;42.636;24.358;2023-04-08T10:34:53;90245.19;;;8.40;60.57
76074;BME280;64776;42.636;24.358;2023-04-08T10:38:00;90248.16;;;8.57;62.59
76074;BME280;64776;42.636;24.358;2023-04-08T10:41:01;90248.16;;;8.57;62.58
76074;BME280;64776;42.636;24.358;2023-04-08T10:44:02;90243.19;;;8.50;62.79
76074;BME280;64776;42.636;24.358;2023-04-08T10:47:04;90248.31;;;8.53;63.29
76074;BME280;64776;42.636;24.358;2023-04-08T10:50:18;90247.00;;;8.87;62.87
76074;BME280;64776;42.636;24.358;2023-04-08T10:53:24;90241.88;;;8.98;61.03
76074;BME280;64776;42.636;24.358;2023-04-08T10:56:26;90242.72;;;9.04;60.30
76074;BME280;64776;42.636;24.358;2023-04-08T10:59:28;90229.88;;;9.02;58.90
76074;BME280;64776;42.636;24.358;2023-04-08T11:02:37;90242.78;;;8.95;56.49
76074;BME280;64776;42.636;24.358;2023-04-08T11:05:39;90231.88;;;8.78;55.99
76074;BME280;64776;42.636;24.358;2023-04-08T11:08:41;90232.81;;;9.05;58.41
76074;BME280;64776;42.636;24.358;2023-04-08T11:11:45;90228.13;;;8.99;64.03
76074;BME280;64776;42.636;24.358;2023-04-08T11:14:46;90228.66;;;9.03;60.95
76074;BME280;64776;42.636;24.358;2023-04-08T11:17:48;90225.19;;;9.12;61.74
76074;BME280;64776;42.636;24.358;2023-04-08T11:20:51;90231.13;;;8.92;64.59
76074;BME280;64776;42.636;24.358;2023-04-08T11:23:54;90223.53;;;9.15;61.22
76074;BME280;64776;42.636;24.358;2023-04-08T11:26:55;90227.28;;;9.37;64.97
76074;BME280;64776;42.636;24.358;2023-04-08T11:29:56;90226.25;;;9.84;58.93
76074;BME280;64776;42.636;24.358;2023-04-08T11:32:57;90222.53;;;9.96;59.23
76074;BME280;64776;42.636;24.358;2023-04-08T11:36:16;90222.44;;;9.70;57.14
76074;BME280;64776;42.636;24.358;2023-04-08T11:39:21;90221.19;;;9.51;58.59
76074;BME280;64776;42.636;24.358;2023-04-08T11:42:26;90220.09;;;9.43;58.70
76074;BME280;64776;42.636;24.358;2023-04-08T11:45:40;90211.66;;;9.30;58.65
76074;BME280;64776;42.636;24.358;2023-04-08T11:48:59;90209.16;;;9.91;56.38
76074;BME280;64776;42.636;24.358;2023-04-08T11:52:01;90211.09;;;9.55;56.58
76074;BME280;64776;42.636;24.358;2023-04-08T11:55:03;90204.63;;;9.62;54.59
76074;BME280;64776;42.636;24.358;2023-04-08T11:58:04;90211.44;;;9.48;55.74
76074;BME280;64776;42.636;24.358;2023-04-08T12:01:05;90208.06;;;9.48;57.24
76074;BME280;64776;42.636;24.358;2023-04-08T12:04:06;90201.50;;;9.63;55.89
76074;BME280;64776;42.636;24.358;2023-04-08T12:07:08;90204.88;;;9.99;54.70
76074;BME280;64776;42.636;24.358;2023-04-08T12:10:10;90194.59;;;10.72;52.83
76074;BME280;64776;42.636;24.358;2023-04-08T12:13:10;90179.94;;;11.13;49.83
76074;BME280;64776;42.636;24.358;2023-04-08T12:16:11;90182.34;;;11.11;49.50
76074;BME280;64776;42.636;24.358;2023-04-08T12:19:12;90185.50;;;10.84;51.09
76074;BME280;64776;42.636;24.358;2023-04-08T12:22:14;90188.38;;;10.81;51.15
76074;BME280;64776;42.636;24.358;2023-04-08T12:25:15;90181.41;;;10.63;51.65
76074;BME280;64776;42.636;24.358;2023-04-08T12:28:16;90177.38;;;10.47;51.34
76074;BME280;64776;42.636;24.358;2023-04-08T12:31:18;90175.16;;;10.06;51.95
76074;BME280;64776;42.636;24.358;2023-04-08T12:34:18;90179.63;;;9.94;52.65
76074;BME280;64776;42.636;24.358;2023-04-08T12:37:21;90179.56;;;9.89;53.78
76074;BME280;64776;42.636;24.358;2023-04-08T12:40:25;90175.75;;;9.75;55.33
76074;BME280;64776;42.636;24.358;2023-04-08T12:43:25;90188.75;;;9.18;56.90
76074;BME280;64776;42.636;24.358;2023-04-08T12:46:26;90185.28;;;8.83;62.21
76074;BME280;64776;42.636;24.358;2023-04-08T12:49:31;90178.66;;;8.64;63.55
76074;BME280;64776;42.636;24.358;2023-04-08T12:52:33;90192.22;;;8.51;64.06
76074;BME280;64776;42.636;24.358;2023-04-08T12:55:36;90198.06;;;8.26;64.47
76074;BME280;64776;42.636;24.358;2023-04-08T12:58:37;90192.66;;;8.11;67.50
76074;BME280;64776;42.636;24.358;2023-04-08T13:01:41;90182.31;;;7.90;67.72
76074;BME280;64776;42.636;24.358;2023-04-08T13:04:41;90187.41;;;8.02;68.44
76074;BME280;64776;42.636;24.358;2023-04-08T13:07:44;90182.56;;;7.77;66.41
76074;BME280;64776;42.636;24.358;2023-04-08T13:10:45;90184.75;;;7.55;67.96
76074;BME280;64776;42.636;24.358;2023-04-08T13:13:49;90177.91;;;7.63;67.93
76074;BME280;64776;42.636;24.358;2023-04-08T13:16:50;90177.25;;;7.77;70.66
76074;BME280;64776;42.636;24.358;2023-04-08T13:19:53;90168.09;;;7.55;69.84
76074;BME280;64776;42.636;24.358;2023-04-08T13:23:01;90163.97;;;7.54;70.00
76074;BME280;64776;42.636;24.358;2023-04-08T13:26:04;90168.09;;;7.55;70.19
76074;BME280;64776;42.636;24.358;2023-04-08T13:29:22;90157.19;;;7.76;71.65
76074;BME280;64776;42.636;24.358;2023-04-08T13:32:30;90160.06;;;7.87;69.92
76074;BME280;64776;42.636;24.358;2023-04-08T13:35:38;90165.72;;;8.18;67.94
76074;BME280;64776;42.636;24.358;2023-04-08T13:38:41;90162.69;;;8.93;63.02
76074;BME280;64776;42.636;24.358;2023-04-08T13:41:41;90149.81;;;9.21;60.58
76074;BME280;64776;42.636;24.358;2023-04-08T13:44:42;90153.78;;;9.25;61.11
76074;BME280;64776;42.636;24.358;2023-04-08T13:47:43;90153.53;;;9.09;60.61
76074;BME280;64776;42.636;24.358;2023-04-08T13:50:44;90161.31;;;9.12;60.81
76074;BME280;64776;42.636;24.358;2023-04-08T13:53:46;90162.34;;;9.00;60.97
76074;BME280;64776;42.636;24.358;2023-04-08T13:56:47;90165.63;;;8.95;60.54
76074;BME280;64776;42.636;24.358;2023-04-08T13:59:50;90155.53;;;8.70;59.06
76074;BME280;64776;42.636;24.358;2023-04-08T14:02:51;90150.78;;;8.45;60.32
76074;BME280;64776;42.636;24.358;2023-04-08T14:05:52;90155.53;;;8.41;60.92
76074;BME280;64776;42.636;24.358;2023-04-08T14:08:54;90156.44;;;8.38;60.70
76074;BME280;64776;42.636;24.358;2023-04-08T14:11:55;90158.41;;;8.13;61.39
76074;BME280;64776;42.636;24.358;2023-04-08T14:14:56;90162.94;;;7.98;60.19
76074;BME280;64776;42.636;24.358;2023-04-08T14:17:56;90162.72;;;7.87;60.04
76074;BME280;64776;42.636;24.358;2023-04-08T14:20:57;90166.16;;;8.02;59.30
76074;BME280;64776;42.636;24.358;2023-04-08T14:23:59;90170.09;;;8.07;59.04
76074;BME280;64776;42.636;24.358;2023-04-08T14:27:02;90160.22;;;8.07;58.32
76074;BME280;64776;42.636;24.358;2023-04-08T14:30:03;90158.00;;;8.06;54.56
76074;BME280;64776;42.636;24.358;2023-04-08T14:33:04;90159.09;;;7.99;54.20
76074;BME280;64776;42.636;24.358;2023-04-08T14:36:05;90147.78;;;8.13;55.22
76074;BME280;64776;42.636;24.358;2023-04-08T14:39:10;90148.13;;;8.59;57.64
76074;BME280;64776;42.636;24.358;2023-04-08T14:42:11;90141.41;;;8.64;57.44
76074;BME280;64776;42.636;24.358;2023-04-08T14:45:14;90148.56;;;8.58;59.51
76074;BME280;64776;42.636;24.358;2023-04-08T14:48:14;90155.63;;;8.32;60.33
76074;BME280;64776;42.636;24.358;2023-04-08T14:51:15;90145.91;;;8.43;60.15
76074;BME280;64776;42.636;24.358;2023-04-08T14:54:17;90146.91;;;8.46;60.49
76074;BME280;64776;42.636;24.358;2023-04-08T14:57:18;90143.09;;;8.23;59.42
76074;BME280;64776;42.636;24.358;2023-04-08T15:00:19;90147.94;;;8.10;60.65
76074;BME280;64776;42.636;24.358;2023-04-08T15:03:20;90148.84;;;8.07;61.61
76074;BME280;64776;42.636;24.358;2023-04-08T15:06:21;90143.78;;;7.94;61.78
76074;BME280;64776;42.636;24.358;2023-04-08T15:09:23;90144.41;;;7.89;61.77
76074;BME280;64776;42.636;24.358;2023-04-08T15:12:24;90150.84;;;7.97;62.80
76074;BME280;64776;42.636;24.358;2023-04-08T15:15:24;90143.28;;;7.81;62.49
76074;BME280;64776;42.636;24.358;2023-04-08T15:18:26;90150.88;;;7.74;62.93
76074;BME280;64776;42.636;24.358;2023-04-08T15:21:27;90158.09;;;7.73;64.92
76074;BME280;64776;42.636;24.358;2023-04-08T15:24:29;90164.50;;;7.34;64.26
76074;BME280;64776;42.636;24.358;2023-04-08T15:27:30;90164.50;;;7.01;66.73
76074;BME280;64776;42.636;24.358;2023-04-08T15:30:31;90165.97;;;6.70;68.81
76074;BME280;64776;42.636;24.358;2023-04-08T15:33:32;90166.72;;;6.43;69.90
76074;BME280;64776;42.636;24.358;2023-04-08T15:36:33;90171.03;;;6.40;71.77
76074;BME280;64776;42.636;24.358;2023-04-08T15:39:35;90179.25;;;6.42;72.08
76074;BME280;64776;42.636;24.358;2023-04-08T15:42:36;90179.88;;;6.19;73.38
76074;BME280;64776;42.636;24.358;2023-04-08T15:45:41;90187.38;;;5.94;74.57
76074;BME280;64776;42.636;24.358;2023-04-08T15:48:42;90190.03;;;5.85;74.82
76074;BME280;64776;42.636;24.358;2023-04-08T15:51:42;90185.72;;;5.78;75.92
76074;BME280;64776;42.636;24.358;2023-04-08T15:54:45;90178.66;;;5.75;76.12
76074;BME280;64776;42.636;24.358;2023-04-08T15:57:45;90194.13;;;5.86;76.25
76074;BME280;64776;42.636;24.358;2023-04-08T16:00:46;90192.81;;;5.90;78.14
76074;BME280;64776;42.636;24.358;2023-04-08T16:03:47;90187.19;;;5.79;75.59
76074;BME280;64776;42.636;24.358;2023-04-08T16:06:48;90186.16;;;5.76;76.46